Time;durP1;ratioP1;P1;durP2;ratioP2;P2;SDS_P1;SDS_P2;PMS_P1;PMS_P2;Temp;Humidity;BMP_temperature;BMP_pressure;BME280_temperature;BME280_humidity;BME280_pressure;Samples;Min_cycle;Max_cycle;Signal;HPM_P1;HPM_P2
2023/06/05 00:02:24;;;;;;;4.38;1.77;;;;;;;10.95;56.29;99849.06;5010853;28;20069;-38
2023/06/05 00:04:50;;;;;;;3.42;2.03;;;;;;;10.77;56.12;99813.28;5028433;28;20082;-39
2023/06/05 00:07:16;;;;;;;2.65;1.67;;;;;;;10.98;56.21;99838.59;5027896;28;20497;-39
2023/06/05 00:09:42;;;;;;;6.20;2.13;;;;;;;10.74;56.08;99805.56;5028554;28;20049;-39
2023/06/05 00:12:08;;;;;;;2.97;1.92;;;;;;;10.98;56.18;99844.66;5028109;28;20045;-39
2023/06/05 00:14:34;;;;;;;3.10;1.52;;;;;;;10.98;56.42;99836.84;5028953;28;20045;-39
2023/06/05 00:17:01;;;;;;;3.25;1.60;;;;;;;10.97;56.07;99834.28;5027724;28;20061;-38
2023/06/05 00:19:27;;;;;;;2.60;1.70;;;;;;;10.99;56.23;99835.09;5028838;28;20052;-39
2023/06/05 00:21:53;;;;;;;3.95;1.75;;;;;;;11.00;56.50;99840.22;5028765;28;20038;-38
2023/06/05 00:24:18;;;;;;;2.80;1.77;;;;;;;11.01;56.21;99841.06;5028815;28;20096;-40
2023/06/05 00:26:44;;;;;;;2.80;1.85;;;;;;;10.83;56.43;99813.09;5010261;28;20041;-38
2023/06/05 00:29:10;;;;;;;6.47;2.38;;;;;;;10.98;56.55;99834.25;5028830;28;20045;-39
2023/06/05 00:31:37;;;;;;;3.97;1.90;;;;;;;11.00;56.55;99834.16;5027642;28;20129;-39
2023/06/05 00:34:03;;;;;;;4.50;1.73;;;;;;;11.02;56.29;99832.38;5027203;28;20124;-39
2023/06/05 00:36:29;;;;;;;5.07;1.58;;;;;;;11.01;56.34;99822.88;5028161;28;20033;-39
2023/06/05 00:38:56;;;;;;;4.20;1.70;;;;;;;11.07;56.59;99832.22;5028648;28;20128;-39
2023/06/05 00:41:23;;;;;;;3.05;1.67;;;;;;;11.09;56.43;99846.88;5026856;28;20041;-38
2023/06/05 00:43:49;;;;;;;3.92;1.80;;;;;;;11.07;56.78;99837.41;5026828;28;20928;-38
2023/06/05 00:46:15;;;;;;;2.70;1.80;;;;;;;10.85;56.47;99803.47;5010778;28;20063;-40
2023/06/05 00:48:43;;;;;;;3.13;1.60;;;;;;;11.09;56.40;99851.25;5028806;28;20051;-40
2023/06/05 00:51:14;;;;;;;3.67;1.83;;;;;;;11.03;56.52;99832.31;5028455;28;20424;-38
2023/06/05 00:53:40;;;;;;;2.55;1.60;;;;;;;11.09;56.38;99846.03;5028090;28;20073;-39
2023/06/05 00:56:06;;;;;;;3.35;1.70;;;;;;;11.10;56.88;99845.09;5011062;28;20064;-39
2023/06/05 00:58:32;;;;;;;2.47;1.60;;;;;;;11.08;56.20;99839.97;5026756;28;20051;-39
2023/06/05 01:00:58;;;;;;;5.88;1.50;;;;;;;11.03;56.61;99845.34;5043070;28;20083;-39
2023/06/05 01:03:24;;;;;;;3.70;1.75;;;;;;;10.85;57.19;99819.94;5027182;28;20060;-39
2023/06/05 01:05:51;;;;;;;2.83;1.70;;;;;;;11.01;56.96;99841.94;5028542;28;20065;-38
2023/06/05 01:08:20;;;;;;;2.92;1.50;;;;;;;10.97;57.52;99840.34;5028405;28;20045;-38
2023/06/05 01:10:46;;;;;;;;;;;;;;;10.96;57.05;99843.84;5026930;28;20037;-40
2023/06/05 01:13:25;;;;;;;3.88;1.63;;;;;;;10.90;57.46;99837.97;5027236;28;19921;-38
2023/06/05 01:15:52;;;;;;;2.17;1.50;;;;;;;10.91;57.16;99842.28;5010773;28;20501;-39
2023/06/05 01:18:18;;;;;;;2.80;1.48;;;;;;;10.87;57.57;99827.69;5010481;28;20042;-39
2023/06/05 01:20:44;;;;;;;2.92;1.60;;;;;;;10.91;57.26;99834.47;5024998;28;20037;-39
2023/06/05 01:23:10;;;;;;;4.25;1.80;;;;;;;10.88;57.31;99837.19;5002115;28;20041;-38
2023/06/05 01:25:36;;;;;;;3.00;1.90;;;;;;;10.88;57.60;99830.25;5003467;28;20072;-39
2023/06/05 01:28:08;;;;;;;3.53;1.55;;;;;;;10.91;57.49;99837.09;4995796;28;20037;-39
2023/06/05 01:30:44;;;;;;;8.68;1.70;;;;;;;10.94;57.52;99840.41;5030694;28;20063;-39
2023/06/05 01:33:17;;;;;;;4.78;1.50;;;;;;;10.96;57.26;99836.03;5031948;28;20041;-39
2023/06/05 01:35:44;;;;;;;2.70;1.65;;;;;;;10.98;57.84;99833.38;5013167;28;20080;-39
2023/06/05 01:38:11;;;;;;;3.17;2.00;;;;;;;10.85;57.51;99816.47;5004754;28;20037;-38
2023/06/05 01:40:37;;;;;;;6.97;1.70;;;;;;;10.99;57.52;99832.50;5032067;28;20053;-39
2023/06/05 01:43:05;;;;;;;4.10;1.40;;;;;;;11.00;57.50;99837.63;5029872;28;20144;-38
2023/06/05 01:45:31;;;;;;;3.60;1.58;;;;;;;11.02;57.47;99838.44;5031815;28;20132;-38
2023/06/05 01:47:57;;;;;;;2.55;1.38;;;;;;;11.04;58.04;99846.19;5046795;28;20037;-38
2023/06/05 01:50:24;;;;;;;3.38;1.60;;;;;;;11.02;57.70;99837.56;5030718;28;20571;-38
2023/06/05 01:52:52;;;;;;;4.20;1.70;;;;;;;11.10;57.72;99852.91;5030336;28;20136;-39
2023/06/05 01:55:23;;;;;;;6.53;1.42;;;;;;;11.13;58.07;99850.22;5020712;28;20056;-39
2023/06/05 01:57:50;;;;;;;2.85;1.33;;;;;;;10.89;57.52;99805.06;5002936;28;20046;-39
2023/06/05 02:00:19;;;;;;;3.10;1.38;;;;;;;11.16;57.65;99852.72;5027019;28;20034;-39
2023/06/05 02:02:47;;;;;;;3.38;1.30;;;;;;;11.19;57.82;99850.88;5010253;28;20037;-39
2023/06/05 02:05:14;;;;;;;3.30;1.50;;;;;;;11.26;57.38;99856.69;4994528;28;20045;-39
2023/06/05 02:07:55;;;;;;;2.53;1.50;;;;;;;11.27;57.65;99851.44;5004341;28;20045;-39
2023/06/05 02:10:23;;;;;;;1.60;1.33;;;;;;;11.11;57.30;99828.59;5029770;28;20122;-40
2023/06/05 02:12:50;;;;;;;2.65;1.58;;;;;;;11.16;57.82;99845.75;5030894;28;20065;-39
2023/06/05 02:15:16;;;;;;;3.53;1.60;;;;;;;11.26;57.37;99861.91;5031263;28;20072;-39
2023/06/05 02:17:49;;;;;;;3.03;1.85;;;;;;;11.34;58.00;99857.31;5029881;28;20083;-39
2023/06/05 02:20:15;;;;;;;3.78;1.50;;;;;;;11.37;57.26;99842.41;5010781;28;20042;-39
2023/06/05 02:22:42;;;;;;;3.20;1.70;;;;;;;11.39;57.72;99850.19;5022929;28;20073;-38
2023/06/05 02:25:10;;;;;;;3.30;1.35;;;;;;;11.34;57.63;99855.56;5009891;28;20533;-39
2023/06/05 02:27:36;;;;;;;3.58;1.70;;;;;;;11.33;57.55;99864.25;5017314;28;20049;-40
2023/06/05 02:30:03;;;;;;;4.00;1.90;;;;;;;11.38;57.83;99859.75;5029757;28;20040;-39
2023/06/05 02:32:31;;;;;;;2.80;1.70;;;;;;;11.36;57.79;99858.94;5030671;28;20045;-40
2023/06/05 02:34:57;;;;;;;3.78;1.85;;;;;;;11.38;58.17;99862.34;5012732;28;20052;-39
2023/06/05 02:37:26;;;;;;;4.55;1.60;;;;;;;11.41;58.15;99858.75;5028680;28;20776;-39
2023/06/05 02:39:52;;;;;;;2.70;1.40;;;;;;;11.45;58.26;99861.22;5013111;28;20046;-39
2023/06/05 02:42:18;;;;;;;4.40;1.45;;;;;;;11.46;57.92;99870.72;5012087;28;20053;-39
2023/06/05 02:44:45;;;;;;;2.75;1.50;;;;;;;11.26;58.84;99852.34;5029301;28;20508;-39
2023/06/05 02:47:12;;;;;;;4.70;1.70;;;;;;;11.38;58.78;99872.75;5029197;28;20533;-39
2023/06/05 02:49:37;;;;;;;4.35;1.60;;;;;;;11.35;59.18;99872.88;5029352;28;20504;-39
2023/06/05 02:52:04;;;;;;;2.17;1.60;;;;;;;11.37;58.92;99875.41;5029282;28;20100;-39
2023/06/05 02:54:30;;;;;;;3.63;2.08;;;;;;;11.44;58.99;99875.16;5030320;28;20029;-40
2023/06/05 02:57:00;;;;;;;;;;;;;;;11.44;59.02;99876.91;4995746;28;20037;-38
2023/06/05 02:59:31;;;;;;;3.55;1.60;;;;;;;11.48;59.06;99870.69;5026351;28;19970;-38
2023/06/05 03:01:58;;;;;;;5.60;1.60;;;;;;;11.52;59.27;99871.41;5028819;28;20038;-39
2023/06/05 03:04:24;;;;;;;5.47;1.58;;;;;;;11.40;59.57;99850.13;5028807;28;20043;-39
2023/06/05 03:06:56;;;;;;;2.42;1.67;;;;;;;11.62;59.45;99870.22;5028953;28;20516;-39
2023/06/05 03:09:24;;;;;;;2.28;1.65;;;;;;;11.60;59.78;99870.25;5028682;28;20063;-39
2023/06/05 03:11:52;;;;;;;2.22;1.50;;;;;;;11.61;59.46;99865.91;5011880;28;20433;-39
2023/06/05 03:14:19;;;;;;;2.53;1.60;;;;;;;11.45;59.55;99845.63;5012605;28;20052;-39
2023/06/05 03:16:45;;;;;;;3.70;1.45;;;;;;;11.57;59.68;99865.13;5028912;28;20429;-40
2023/06/05 03:19:14;;;;;;;2.67;1.75;;;;;;;11.55;59.59;99876.53;5029027;28;20047;-39
2023/06/05 03:21:43;;;;;;;3.40;1.48;;;;;;;11.40;59.63;99850.13;5028471;28;20429;-38
2023/06/05 03:24:15;;;;;;;2.28;1.58;;;;;;;11.56;59.76;99873.88;5029147;28;20080;-39
2023/06/05 03:26:44;;;;;;;3.33;1.80;;;;;;;11.66;59.60;99871.78;5027305;28;20050;-39
2023/06/05 03:29:12;;;;;;;2.42;1.48;;;;;;;11.74;59.59;99875.00;5026067;28;20607;-38
2023/06/05 03:31:39;;;;;;;5.18;2.20;;;;;;;11.74;60.13;99870.63;5010227;28;20045;-39
2023/06/05 03:34:06;;;;;;;3.38;1.65;;;;;;;11.79;59.40;99871.31;5027858;28;20049;-39
2023/06/05 03:36:37;;;;;;;3.65;1.77;;;;;;;11.77;59.32;99869.69;5010151;28;20045;-39
2023/06/05 03:39:06;;;;;;;3.88;1.95;;;;;;;11.76;59.75;99866.22;5026973;28;20128;-38
2023/06/05 03:41:32;;;;;;;3.53;1.48;;;;;;;11.71;59.59;99873.31;5027052;28;20037;-39
2023/06/05 03:43:58;;;;;;;7.70;4.10;;;;;;;11.57;60.55;99864.28;5026871;28;20099;-39
2023/06/05 03:46:24;;;;;;;2.20;1.48;;;;;;;11.54;60.66;99862.66;5027881;28;20132;-38
2023/06/05 03:48:58;;;;;;;2.95;1.70;;;;;;;11.56;60.76;99873.88;4993870;28;20525;-39
2023/06/05 03:51:29;;;;;;;3.72;1.90;;;;;;;11.35;61.81;99838.19;5011685;28;20077;-38
2023/06/05 03:53:58;;;;;;;3.92;2.00;;;;;;;11.53;61.86;99855.75;5027906;28;20041;-39
2023/06/05 03:56:28;;;;;;;2.85;2.00;;;;;;;11.56;62.42;99852.19;5028117;28;20099;-41
2023/06/05 03:58:55;;;;;;;2.83;1.67;;;;;;;11.63;62.50;99838.03;5042978;28;20041;-40
2023/06/05 04:01:22;;;;;;;4.70;1.92;;;;;;;11.67;62.21;99834.44;5027927;28;20128;-38
2023/06/05 04:03:48;;;;;;;4.15;1.73;;;;;;;11.58;62.41;99808.69;4994355;28;20053;-39
2023/06/05 04:06:14;;;;;;;4.97;2.25;;;;;;;11.99;62.30;99857.56;5009359;28;20041;-39
2023/06/05 04:08:40;;;;;;;2.80;1.98;;;;;;;12.14;62.82;99862.19;5008842;28;20041;-39
2023/06/05 04:11:06;;;;;;;6.55;2.45;;;;;;;12.25;63.08;99861.78;5009609;28;20043;-40
2023/06/05 04:13:32;;;;;;;4.25;1.70;;;;;;;12.40;62.92;99862.97;5027917;28;20081;-39
2023/06/05 04:16:02;;;;;;;;;;;;;;;12.49;62.76;99857.38;5028285;28;20091;-39
2023/06/05 04:18:28;;;;;;;2.35;1.63;;;;;;;12.73;62.46;99864.22;5027637;28;19928;-39
2023/06/05 04:20:54;;;;;;;4.75;1.95;;;;;;;12.89;62.06;99867.91;5028589;28;20041;-39
2023/06/05 04:23:22;;;;;;;3.63;1.58;;;;;;;12.90;61.79;99868.78;4993446;28;20128;-39
2023/06/05 04:25:48;;;;;;;5.07;1.45;;;;;;;12.78;62.18;99830.97;4996621;28;20041;-38
2023/06/05 04:28:15;;;;;;;3.95;1.92;;;;;;;13.00;62.11;99863.09;5027019;28;20394;-39
2023/06/05 04:30:41;;;;;;;4.43;1.95;;;;;;;12.92;62.19;99865.19;5010592;28;20076;-40
2023/06/05 04:33:07;;;;;;;3.70;1.73;;;;;;;12.92;62.66;99862.59;5027230;28;20049;-39
2023/06/05 04:35:36;;;;;;;2.88;1.83;;;;;;;12.76;63.02;99842.41;5010946;28;20568;-39
2023/06/05 04:38:03;;;;;;;4.10;1.75;;;;;;;12.69;64.04;99873.94;5027730;28;20045;-38
2023/06/05 04:40:31;;;;;;;4.40;1.95;;;;;;;12.45;65.68;99877.53;5033117;28;20477;-39
2023/06/05 04:42:58;;;;;;;3.60;2.03;;;;;;;12.14;67.33;99872.59;5027091;28;20049;-38
2023/06/05 04:45:25;;;;;;;6.35;1.85;;;;;;;11.99;68.87;99873.19;5011267;28;20041;-39
2023/06/05 04:47:51;;;;;;;2.95;2.03;;;;;;;11.81;70.10;99874.72;5028045;28;20065;-38
2023/06/05 04:50:26;;;;;;;3.20;1.85;;;;;;;11.68;71.21;99870.81;5026202;28;20437;-38
2023/06/05 04:52:55;;;;;;;5.13;1.95;;;;;;;11.38;72.44;99845.88;5026654;28;20045;-40
2023/06/05 04:55:22;;;;;;;2.92;1.60;;;;;;;11.18;73.95;99828.34;5019304;28;20057;-39
2023/06/05 04:57:53;;;;;;;3.40;1.63;;;;;;;11.33;75.72;99873.81;5030689;28;20041;-38
2023/06/05 05:00:19;;;;;;;5.82;2.45;;;;;;;11.20;76.65;99873.38;5033181;28;20106;-39
2023/06/05 05:02:46;;;;;;;4.68;1.70;;;;;;;11.17;77.33;99870.88;5040023;28;20068;-39
2023/06/05 05:05:13;;;;;;;3.58;2.13;;;;;;;11.23;77.84;99873.28;5032585;28;20076;-38
2023/06/05 05:07:41;;;;;;;2.78;1.73;;;;;;;11.31;78.15;99871.25;5027612;28;20148;-39
2023/06/05 05:10:08;;;;;;;4.63;2.40;;;;;;;11.38;78.63;99874.50;5024203;28;20073;-38
2023/06/05 05:12:35;;;;;;;3.60;1.95;;;;;;;11.44;78.55;99867.34;5029434;28;20049;-38
2023/06/05 05:15:02;;;;;;;3.58;2.00;;;;;;;11.32;79.08;99833.91;5029195;28;20033;-38
2023/06/05 05:17:30;;;;;;;2.70;2.00;;;;;;;11.62;78.70;99865.81;5026394;28;20527;-39
2023/06/05 05:19:57;;;;;;;3.55;2.10;;;;;;;11.62;78.67;99841.56;4980234;28;20721;-40
2023/06/05 05:22:26;;;;;;;3.95;2.22;;;;;;;11.72;78.20;99843.75;5004547;28;20050;-39
2023/06/05 05:24:52;;;;;;;4.65;2.20;;;;;;;11.98;78.10;99875.88;5010749;28;20045;-60
2023/06/05 05:27:18;;;;;;;2.25;1.88;;;;;;;12.17;77.33;99875.13;5040813;28;20045;-40
2023/06/05 05:29:45;;;;;;;5.03;2.58;;;;;;;12.17;76.83;99859.47;5012743;28;20049;-41
2023/06/05 05:32:11;;;;;;;3.90;2.30;;;;;;;12.28;76.34;99839.06;5019355;28;20050;-41
2023/06/05 05:34:37;;;;;;;6.88;2.72;;;;;;;12.79;76.12;99874.41;5015060;28;20060;-41
2023/06/05 05:37:03;;;;;;;4.50;2.00;;;;;;;13.06;75.24;99875.06;5030472;28;20072;-42
2023/06/05 05:39:30;;;;;;;4.45;2.20;;;;;;;13.18;74.37;99876.34;5029705;28;20053;-40
2023/06/05 05:41:56;;;;;;;3.28;2.38;;;;;;;13.21;73.71;99864.00;5027521;28;20049;-40
2023/06/05 05:44:22;;;;;;;3.63;2.13;;;;;;;13.47;73.27;99878.56;5027110;28;20042;-41
2023/06/05 05:46:48;;;;;;;4.18;2.28;;;;;;;13.30;73.34;99881.88;5029518;28;20083;-39
2023/06/05 05:49:14;;;;;;;5.25;2.10;;;;;;;12.93;73.28;99869.47;5029148;28;20049;-39
2023/06/05 05:51:40;;;;;;;8.70;2.20;;;;;;;12.89;74.10;99886.19;5034512;28;20174;-41
2023/06/05 05:54:06;;;;;;;3.30;2.17;;;;;;;12.89;74.43;99880.09;5036756;28;20049;-39
2023/06/05 05:56:34;;;;;;;7.60;2.40;;;;;;;12.92;74.32;99883.47;5028647;28;20037;-41
2023/06/05 05:59:00;;;;;;;3.38;2.33;;;;;;;12.78;74.59;99846.63;5035513;28;20037;-41
2023/06/05 06:01:26;;;;;;;4.50;2.42;;;;;;;12.80;75.02;99850.03;5029973;28;20037;-40
2023/06/05 06:03:52;;;;;;;4.47;2.45;;;;;;;12.77;74.92;99863.19;5031168;28;20045;-41
2023/06/05 06:06:18;;;;;;;6.43;3.35;;;;;;;12.76;75.08;99860.66;5031098;28;20171;-40
2023/06/05 06:08:44;;;;;;;4.05;2.55;;;;;;;12.91;75.22;99880.91;5030949;28;20077;-40
2023/06/05 06:11:10;;;;;;;5.38;2.50;;;;;;;13.02;74.38;99873.50;5028966;28;20049;-42
2023/06/05 06:13:36;;;;;;;6.65;3.25;;;;;;;12.86;74.14;99846.31;5029797;28;20056;-42
2023/06/05 06:16:02;;;;;;;5.15;2.55;;;;;;;13.27;73.70;99875.97;5039811;28;20045;-40
2023/06/05 06:18:28;;;;;;;5.43;2.40;;;;;;;13.37;73.32;99877.25;5016611;28;20513;-41
2023/06/05 06:20:55;;;;;;;6.68;2.50;;;;;;;13.41;72.62;99871.84;5034229;28;20052;-41
2023/06/05 06:23:21;;;;;;;5.60;2.50;;;;;;;13.59;71.87;99878.03;5037727;28;20122;-40
2023/06/05 06:25:47;;;;;;;6.55;2.60;;;;;;;13.71;71.58;99887.94;5043582;28;20041;-40
2023/06/05 06:28:14;;;;;;;4.28;2.70;;;;;;;13.84;71.00;99870.81;5043961;28;20041;-42
2023/06/05 06:30:39;;;;;;;4.22;1.98;;;;;;;14.08;70.63;99879.31;5029338;28;20041;-41
2023/06/05 06:33:05;;;;;;;7.13;2.90;;;;;;;14.22;69.68;99869.09;5030073;28;20052;-42
2023/06/05 06:35:31;;;;;;;5.30;2.88;;;;;;;14.51;69.17;99872.97;5030652;28;20592;-40
2023/06/05 06:37:58;;;;;;;6.97;2.50;;;;;;;15.00;67.84;99868.84;5029669;28;20045;-41
2023/06/05 06:40:24;;;;;;;7.93;3.00;;;;;;;15.87;66.14;99875.72;5028780;28;20152;-40
2023/06/05 06:42:50;;;;;;;4.43;2.53;;;;;;;16.39;62.81;99852.75;5021601;28;20140;-40
2023/06/05 06:45:37;;;;;;;4.15;2.33;;;;;;;16.60;62.37;99871.75;5024750;28;20399;-40
2023/06/05 06:48:02;;;;;;;6.07;2.10;;;;;;;16.87;60.30;99870.19;5013390;28;20037;-41
2023/06/05 06:50:28;;;;;;;5.57;2.30;;;;;;;17.17;59.77;99857.06;5030533;28;20048;-41
2023/06/05 06:52:55;;;;;;;6.47;2.42;;;;;;;18.53;57.29;99870.63;5030294;28;20053;-41
2023/06/05 06:55:21;;;;;;;3.47;1.98;;;;;;;18.96;54.51;99860.81;5029984;28;20586;-42
2023/06/05 06:57:47;;;;;;;4.40;1.60;;;;;;;19.41;52.95;99870.09;5029040;28;20045;-41
2023/06/05 07:00:14;;;;;;;3.10;1.85;;;;;;;20.15;50.96;99856.16;5030284;28;20091;-42
2023/06/05 07:02:40;;;;;;;3.42;1.58;;;;;;;20.94;48.42;99845.94;5029761;28;20049;-43
2023/06/05 07:05:07;;;;;;;2.88;1.83;;;;;;;22.34;45.46;99858.94;5029342;28;20072;-42
2023/06/05 07:07:33;;;;;;;5.00;1.92;;;;;;;21.82;45.61;99855.09;5029445;28;20278;-40
2023/06/05 07:09:59;;;;;;;3.00;1.20;;;;;;;21.24;45.49;99828.78;5008290;28;20643;-42
2023/06/05 07:12:25;;;;;;;2.97;1.33;;;;;;;19.81;46.69;99845.31;5026960;28;20076;-41
2023/06/05 07:14:51;;;;;;;2.15;1.27;;;;;;;19.11;48.36;99830.78;5026342;28;20049;-41
2023/06/05 07:17:17;;;;;;;4.78;2.20;;;;;;;19.99;47.82;99845.00;5029596;28;20037;-43
2023/06/05 07:19:43;;;;;;;2.97;1.73;;;;;;;21.49;45.04;99845.28;5030863;28;20067;-41
2023/06/05 07:22:09;;;;;;;3.70;1.70;;;;;;;22.59;43.07;99850.69;5025732;28;20508;-41
2023/06/05 07:24:36;;;;;;;4.55;1.90;;;;;;;23.58;41.15;99845.94;5034608;28;20562;-41
2023/06/05 07:27:03;;;;;;;4.00;1.60;;;;;;;24.60;38.90;99852.06;5026831;28;20137;-41
2023/06/05 07:29:30;;;;;;;3.97;2.03;;;;;;;25.04;37.74;99853.38;5023082;28;20045;-41
2023/06/05 07:31:57;;;;;;;2.60;1.70;;;;;;;23.67;39.46;99852.25;5028181;28;20052;-41
2023/06/05 07:34:24;;;;;;;2.42;1.63;;;;;;;22.43;40.82;99834.34;5022089;28;20069;-42
2023/06/05 07:36:55;;;;;;;3.80;1.80;;;;;;;21.81;42.12;99852.56;5028541;28;20111;-40
2023/06/05 07:39:21;;;;;;;7.00;1.80;;;;;;;21.00;43.31;99857.84;5023972;28;20139;-41
2023/06/05 07:41:47;;;;;;;3.88;1.83;;;;;;;21.12;43.21;99852.50;5026869;28;20042;-44
2023/06/05 07:44:15;;;;;;;4.32;1.38;;;;;;;21.08;43.28;99848.41;5025370;28;20041;-41
2023/06/05 07:46:42;;;;;;;6.50;1.60;;;;;;;20.46;44.53;99852.19;5032022;28;20106;-42
2023/06/05 07:49:09;;;;;;;3.65;1.70;;;;;;;20.18;45.39;99851.50;5019575;28;20128;-40
2023/06/05 07:51:38;;;;;;;4.40;1.95;;;;;;;20.48;45.26;99842.34;5038108;28;20117;-40
2023/06/05 07:54:09;;;;;;;3.13;1.38;;;;;;;21.14;43.52;99845.31;5030645;28;20046;-41
2023/06/05 07:56:36;;;;;;;2.40;1.30;;;;;;;21.55;42.31;99842.19;4985044;28;20038;-42
2023/06/05 07:59:03;;;;;;;3.25;1.52;;;;;;;23.15;40.15;99838.06;5024878;28;20041;-42
2023/06/05 08:01:36;;;;;;;1.83;1.10;;;;;;;24.66;36.58;99819.59;5022387;28;20068;-40
2023/06/05 08:04:10;;;;;;;3.13;1.17;;;;;;;25.28;35.64;99835.13;5021306;28;20076;-43
2023/06/05 08:06:40;;;;;;;2.25;1.40;;;;;;;25.42;34.68;99834.72;5008527;28;20042;-41
2023/06/05 08:09:09;;;;;;;3.28;1.40;;;;;;;25.95;34.47;99820.84;5036873;28;20224;-42
2023/06/05 08:11:43;;;;;;;6.10;2.85;;;;;;;25.91;34.25;99836.25;5020161;28;20041;-42
2023/06/05 08:14:09;;;;;;;2.55;1.25;;;;;;;26.94;32.83;99822.63;5016868;28;20521;-42
2023/06/05 08:16:35;;;;;;;2.20;1.17;;;;;;;26.44;32.30;99823.09;5018976;28;20047;-41
2023/06/05 08:19:02;;;;;;;3.33;1.10;;;;;;;24.66;34.89;99814.28;5008936;28;20144;-42
2023/06/05 08:21:28;;;;;;;4.22;1.83;;;;;;;23.19;36.70;99833.34;5024476;28;20038;-41
2023/06/05 08:23:54;;;;;;;3.90;1.65;;;;;;;21.98;38.88;99830.94;5028338;28;20053;-41
2023/06/05 08:26:21;;;;;;;2.97;1.25;;;;;;;21.25;39.83;99820.69;5021341;28;20095;-40
2023/06/05 08:28:48;;;;;;;3.65;1.30;;;;;;;19.88;41.76;99777.13;5021151;28;20046;-41
2023/06/05 08:31:15;;;;;;;2.42;1.25;;;;;;;19.63;42.74;99807.03;5037128;28;20038;-40
2023/06/05 08:33:42;;;;;;;1.73;1.00;;;;;;;19.64;43.22;99815.78;5017535;28;20041;-40
2023/06/05 08:36:07;;;;;;;3.40;1.65;;;;;;;21.86;40.28;99800.09;5020253;28;20108;-41
2023/06/05 08:38:34;;;;;;;2.67;1.60;;;;;;;24.03;37.03;99805.72;5040434;28;20038;-42
2023/06/05 08:41:02;;;;;;;3.25;1.70;;;;;;;23.96;36.20;99812.56;5021626;28;20414;-42
2023/06/05 08:43:30;;;;;;;5.20;1.45;;;;;;;22.56;37.78;99795.28;5020035;28;21609;-41
2023/06/05 08:45:57;;;;;;;2.70;1.55;;;;;;;21.61;39.46;99803.81;5020482;28;20103;-41
2023/06/05 08:48:25;;;;;;;3.75;1.23;;;;;;;20.83;40.28;99800.13;5013391;28;20428;-42
2023/06/05 08:50:53;;;;;;;2.10;1.40;;;;;;;20.66;41.26;99812.81;5024388;28;20033;-41
2023/06/05 08:53:20;;;;;;;2.50;1.40;;;;;;;22.71;38.02;99806.47;5021891;28;20057;-41
2023/06/05 08:55:50;;;;;;;3.15;1.77;;;;;;;24.53;35.44;99787.13;5008508;28;20073;-41
2023/06/05 08:58:16;;;;;;;1.67;1.17;;;;;;;25.32;33.12;99804.63;5008055;28;20433;-41
2023/06/05 09:00:42;;;;;;;2.17;1.13;;;;;;;26.05;32.42;99792.31;5023883;28;20041;-40
2023/06/05 09:03:12;;;;;;;3.33;1.45;;;;;;;25.23;32.87;99769.03;5026337;28;20045;-41
2023/06/05 09:05:38;;;;;;;4.07;1.17;;;;;;;25.52;32.62;99776.94;5020530;28;20042;-40
2023/06/05 09:08:04;;;;;;;4.05;1.45;;;;;;;24.42;33.39;99783.63;5024153;28;20046;-41
2023/06/05 09:10:30;;;;;;;6.40;1.35;;;;;;;23.33;34.34;99793.25;5025020;28;20042;-41
2023/06/05 09:12:58;;;;;;;3.72;1.40;;;;;;;21.98;36.55;99793.88;5016242;28;20104;-42
2023/06/05 09:15:28;;;;;;;5.18;1.67;;;;;;;21.25;40.72;99790.78;5022644;28;20037;-42
2023/06/05 09:18:11;;;;;;;12.27;4.30;;;;;;;20.75;46.13;99787.47;5020036;28;20775;-40
2023/06/05 09:20:39;;;;;;;5.47;1.90;;;;;;;20.24;48.21;99781.56;5006699;28;20057;-41
2023/06/05 09:23:22;;;;;;;5.47;1.70;;;;;;;19.75;50.95;99774.50;5023419;28;20041;-41
2023/06/05 09:25:48;;;;;;;4.28;1.52;;;;;;;19.61;51.61;99779.94;5019228;28;20049;-42
2023/06/05 09:28:18;;;;;;;2.85;1.45;;;;;;;21.07;49.54;99771.84;5022828;28;20061;-41
2023/06/05 09:31:02;;;;;;;2.92;1.83;;;;;;;21.10;49.93;99779.53;5023249;28;20061;-41
2023/06/05 09:33:33;;;;;;;2.92;2.33;;;;;;;20.69;50.20;99780.00;5022180;28;20517;-43
2023/06/05 09:36:04;;;;;;;1.30;1.10;;;;;;;20.00;48.09;99788.59;5021998;28;20082;-41
2023/06/05 09:38:30;;;;;;;5.20;1.48;;;;;;;19.19;48.73;99802.16;5004460;28;20064;-41
2023/06/05 09:41:10;;;;;;;2.97;1.15;;;;;;;18.30;50.38;99811.56;5019043;28;20596;-42
2023/06/05 09:43:37;;;;;;;3.15;1.13;;;;;;;17.73;51.35;99832.69;5040060;28;20136;-40
2023/06/05 09:46:11;;;;;;;4.25;1.20;;;;;;;17.16;52.14;99812.50;5024950;28;20454;-41
2023/06/05 09:48:37;;;;;;;3.53;1.30;;;;;;;16.69;52.73;99803.00;5015373;28;20046;-41
2023/06/05 09:51:14;;;;;;;2.17;1.17;;;;;;;16.52;52.26;99796.03;5029427;28;20046;-42
2023/06/05 09:53:45;;;;;;;1.35;1.10;;;;;;;16.23;51.49;99801.22;5005811;28;20041;-42
2023/06/05 09:56:13;;;;;;;1.70;0.93;;;;;;;16.04;52.27;99798.78;5028302;28;20060;-41
2023/06/05 09:58:45;;;;;;;4.13;1.08;;;;;;;16.08;53.06;99800.28;5024863;28;20077;-40
2023/06/05 10:01:15;;;;;;;1.52;1.17;;;;;;;16.70;51.89;99796.78;5022177;28;20118;-40
2023/06/05 10:03:43;;;;;;;2.83;1.10;;;;;;;18.54;49.71;99802.09;5013620;28;20128;-41
2023/06/05 10:06:09;;;;;;;3.95;1.38;;;;;;;21.86;45.09;99774.47;5018681;28;20057;-40
2023/06/05 10:08:35;;;;;;;2.38;1.10;;;;;;;24.11;39.90;99795.28;5025977;28;20044;-41
2023/06/05 10:11:01;;;;;;;4.43;1.50;;;;;;;25.98;36.90;99801.88;5025742;28;20182;-41
2023/06/05 10:13:28;;;;;;;7.03;1.67;;;;;;;26.38;34.64;99804.22;5011206;28;20543;-41
2023/06/05 10:15:54;;;;;;;1.75;1.02;;;;;;;27.08;33.16;99806.06;5024931;28;20057;-42
2023/06/05 10:18:20;;;;;;;3.08;1.30;;;;;;;28.84;32.30;99790.16;5028225;28;20033;-40
2023/06/05 10:20:46;;;;;;;2.03;1.40;;;;;;;30.68;30.49;99796.16;5023452;28;20401;-44
2023/06/05 10:23:15;;;;;;;3.80;1.50;;;;;;;30.58;28.12;99782.97;5028737;28;20041;-40
2023/06/05 10:25:42;;;;;;;1.30;1.20;;;;;;;31.47;28.10;99792.13;5010132;28;20525;-42
2023/06/05 10:28:14;;;;;;;5.03;1.35;;;;;;;32.45;26.52;99784.53;5029254;28;20536;-42
2023/06/05 10:31:02;;;;;;;2.15;1.50;;;;;;;32.87;26.09;99788.31;5035439;28;20076;-42
2023/06/05 10:33:51;;;;;;;1.42;1.20;;;;;;;30.87;25.71;99776.06;5023971;28;20049;-42
2023/06/05 10:36:40;;;;;;;2.63;1.00;;;;;;;30.52;27.16;99778.31;5021995;28;20333;-43
2023/06/05 10:39:10;;;;;;;11.77;2.38;;;;;;;30.78;28.19;99782.47;5025543;28;20042;-41
2023/06/05 10:41:36;;;;;;;3.50;2.22;;;;;;;30.45;28.95;99781.88;5023003;28;20030;-41
2023/06/05 10:44:02;;;;;;;4.90;2.00;;;;;;;31.77;27.60;99780.38;5027064;28;21484;-42
2023/06/05 10:46:37;;;;;;;5.65;3.72;;;;;;;31.89;27.57;99773.50;5021259;28;20050;-41
2023/06/05 10:49:12;;;;;;;5.22;2.00;;;;;;;33.48;26.44;99776.78;5018049;28;20026;-42
2023/06/05 10:51:49;;;;;;;2.83;1.90;;;;;;;33.45;25.59;99773.63;5017718;28;20086;-44
2023/06/05 10:54:34;;;;;;;2.25;1.20;;;;;;;30.97;27.41;99779.31;5037678;28;20428;-41
2023/06/05 10:57:02;;;;;;;3.75;1.25;;;;;;;29.03;29.50;99770.25;5020309;28;20037;-40
2023/06/05 10:59:30;;;;;;;2.80;1.38;;;;;;;27.26;31.63;99757.97;5025023;28;20038;-41
2023/06/05 11:02:23;;;;;;;3.55;1.48;;;;;;;26.10;33.17;99774.88;5023708;28;20056;-42
2023/06/05 11:04:49;;;;;;;2.05;1.10;;;;;;;24.98;34.76;99772.31;5023582;28;20574;-42
2023/06/05 11:07:20;;;;;;;1.88;1.13;;;;;;;24.20;36.12;99770.56;5028926;28;20091;-39
2023/06/05 11:10:02;;;;;;;2.13;1.38;;;;;;;23.55;37.50;99782.47;5025847;28;20600;-39
2023/06/05 11:12:39;;;;;;;2.70;1.20;;;;;;;22.91;38.79;99792.41;5010836;28;20049;-41
2023/06/05 11:15:28;;;;;;;2.95;1.10;;;;;;;22.13;38.51;99770.59;5025025;28;20052;-41
2023/06/05 11:17:54;;;;;;;5.45;1.20;;;;;;;21.95;39.21;99768.47;5020606;28;20080;-41
2023/06/05 11:20:32;;;;;;;1.27;0.98;;;;;;;21.41;40.32;99768.31;5039339;28;20558;-41
2023/06/05 11:22:58;;;;;;;2.03;1.25;;;;;;;21.55;40.59;99765.47;5026284;28;20045;-40
2023/06/05 11:25:26;;;;;;;3.40;1.20;;;;;;;21.80;40.03;99759.06;5024024;28;20041;-40
2023/06/05 11:28:01;;;;;;;2.45;1.40;;;;;;;23.14;38.19;99758.63;5025611;28;20094;-41
2023/06/05 11:30:31;;;;;;;2.25;1.33;;;;;;;25.59;34.60;99762.06;5023576;28;20104;-41
2023/06/05 11:33:08;;;;;;;4.93;1.52;;;;;;;27.74;31.85;99762.78;5031175;28;20090;-41
2023/06/05 11:35:35;;;;;;;1.70;1.40;;;;;;;29.03;29.88;99762.22;5015790;28;20100;-41
2023/06/05 11:38:15;;;;;;;3.60;1.42;;;;;;;29.00;28.53;99750.00;5022171;28;20037;-42
2023/06/05 11:40:42;;;;;;;1.55;1.10;;;;;;;29.02;27.80;99757.88;5005639;28;20054;-42